sensor_id;sensor_type;location;lat;lon;timestamp;P1;durP1;ratioP1;P2;durP2;ratioP2
13204;SDS011;6667;52.634;9.226;2022-12-18T07:45:41;14.20;;;7.93;;
13204;SDS011;6667;52.634;9.226;2022-12-18T07:48:08;13.17;;;7.70;;
13204;SDS011;6667;52.634;9.226;2022-12-18T07:50:36;13.20;;;7.07;;
13204;SDS011;6667;52.634;9.226;2022-12-18T07:53:03;12.30;;;6.67;;
13204;SDS011;6667;52.634;9.226;2022-12-18T07:55:30;9.23;;;6.07;;
13204;SDS011;6667;52.634;9.226;2022-12-18T07:57:59;10.93;;;6.40;;
13204;SDS011;6667;52.634;9.226;2022-12-18T08:00:27;13.70;;;7.87;;
13204;SDS011;6667;52.634;9.226;2022-12-18T08:02:55;15.17;;;7.27;;
13204;SDS011;6667;52.634;9.226;2022-12-18T08:05:21;14.97;;;6.73;;
13204;SDS011;6667;52.634;9.226;2022-12-18T08:07:48;17.37;;;7.83;;
13204;SDS011;6667;52.634;9.226;2022-12-18T08:10:15;10.70;;;6.90;;
13204;SDS011;6667;52.634;9.226;2022-12-18T08:12:42;14.07;;;7.07;;
13204;SDS011;6667;52.634;9.226;2022-12-18T08:15:09;15.77;;;7.87;;
13204;SDS011;6667;52.634;9.226;2022-12-18T08:17:36;15.57;;;8.40;;
13204;SDS011;6667;52.634;9.226;2022-12-18T08:20:04;11.70;;;7.03;;
13204;SDS011;6667;52.634;9.226;2022-12-18T08:22:33;11.37;;;7.37;;
13204;SDS011;6667;52.634;9.226;2022-12-18T08:25:00;12.83;;;8.37;;
13204;SDS011;6667;52.634;9.226;2022-12-18T08:27:27;12.43;;;8.20;;
13204;SDS011;6667;52.634;9.226;2022-12-18T08:29:53;11.87;;;7.63;;
13204;SDS011;6667;52.634;9.226;2022-12-18T08:32:20;11.27;;;6.97;;
13204;SDS011;6667;52.634;9.226;2022-12-18T08:34:47;15.13;;;7.50;;
13204;SDS011;6667;52.634;9.226;2022-12-18T08:37:15;10.47;;;7.73;;
13204;SDS011;6667;52.634;9.226;2022-12-18T08:39:41;11.83;;;7.53;;
13204;SDS011;6667;52.634;9.226;2022-12-18T08:42:08;15.87;;;7.53;;
13204;SDS011;6667;52.634;9.226;2022-12-18T08:44:52;11.87;;;7.20;;
13204;SDS011;6667;52.634;9.226;2022-12-18T08:47:19;15.40;;;8.33;;
13204;SDS011;6667;52.634;9.226;2022-12-18T08:49:46;12.57;;;7.50;;
13204;SDS011;6667;52.634;9.226;2022-12-18T08:52:12;9.53;;;6.63;;
13204;SDS011;6667;52.634;9.226;2022-12-18T08:54:40;14.87;;;7.93;;
13204;SDS011;6667;52.634;9.226;2022-12-18T08:57:07;14.27;;;7.43;;
13204;SDS011;6667;52.634;9.226;2022-12-18T08:59:34;16.93;;;8.10;;
13204;SDS011;6667;52.634;9.226;2022-12-18T09:02:00;14.77;;;7.83;;
13204;SDS011;6667;52.634;9.226;2022-12-18T09:04:27;14.87;;;7.93;;
13204;SDS011;6667;52.634;9.226;2022-12-18T09:06:54;12.80;;;7.80;;
13204;SDS011;6667;52.634;9.226;2022-12-18T09:09:22;14.10;;;7.57;;
13204;SDS011;6667;52.634;9.226;2022-12-18T09:11:49;12.23;;;7.47;;
13204;SDS011;6667;52.634;9.226;2022-12-18T09:14:15;14.27;;;8.47;;
13204;SDS011;6667;52.634;9.226;2022-12-18T09:16:42;12.80;;;7.77;;
13204;SDS011;6667;52.634;9.226;2022-12-18T09:19:09;11.53;;;8.20;;
13204;SDS011;6667;52.634;9.226;2022-12-18T09:21:36;14.53;;;8.93;;
13204;SDS011;6667;52.634;9.226;2022-12-18T09:24:03;16.37;;;8.80;;
13204;SDS011;6667;52.634;9.226;2022-12-18T09:26:32;14.03;;;8.37;;
13204;SDS011;6667;52.634;9.226;2022-12-18T09:28:59;14.57;;;8.40;;
13204;SDS011;6667;52.634;9.226;2022-12-18T09:31:26;14.93;;;8.67;;
13204;SDS011;6667;52.634;9.226;2022-12-18T09:33:54;13.23;;;8.50;;
13204;SDS011;6667;52.634;9.226;2022-12-18T09:36:21;16.00;;;9.27;;
13204;SDS011;6667;52.634;9.226;2022-12-18T09:38:47;17.43;;;10.43;;
13204;SDS011;6667;52.634;9.226;2022-12-18T09:41:22;16.37;;;8.37;;
13204;SDS011;6667;52.634;9.226;2022-12-18T09:44:09;17.60;;;9.97;;
13204;SDS011;6667;52.634;9.226;2022-12-18T09:46:43;21.13;;;11.00;;
13204;SDS011;6667;52.634;9.226;2022-12-18T09:49:14;22.87;;;10.90;;
13204;SDS011;6667;52.634;9.226;2022-12-18T09:51:46;21.70;;;12.67;;
13204;SDS011;6667;52.634;9.226;2022-12-18T09:54:20;27.03;;;14.47;;
13204;SDS011;6667;52.634;9.226;2022-12-18T09:56:52;30.87;;;15.33;;
13204;SDS011;6667;52.634;9.226;2022-12-18T09:59:21;20.90;;;10.67;;
13204;SDS011;6667;52.634;9.226;2022-12-18T10:01:50;18.80;;;9.60;;
13204;SDS011;6667;52.634;9.226;2022-12-18T10:04:17;19.70;;;10.73;;
13204;SDS011;6667;52.634;9.226;2022-12-18T10:06:45;18.70;;;10.03;;
13204;SDS011;6667;52.634;9.226;2022-12-18T10:09:19;17.37;;;8.67;;
13204;SDS011;6667;52.634;9.226;2022-12-18T10:11:53;15.83;;;9.47;;
13204;SDS011;6667;52.634;9.226;2022-12-18T10:14:29;14.73;;;8.80;;
13204;SDS011;6667;52.634;9.226;2022-12-18T10:17:02;16.23;;;8.90;;
13204;SDS011;6667;52.634;9.226;2022-12-18T10:19:38;15.93;;;10.10;;
13204;SDS011;6667;52.634;9.226;2022-12-18T10:22:16;21.93;;;10.43;;
13204;SDS011;6667;52.634;9.226;2022-12-18T10:24:52;18.90;;;10.50;;
13204;SDS011;6667;52.634;9.226;2022-12-18T10:27:27;16.13;;;9.87;;
13204;SDS011;6667;52.634;9.226;2022-12-18T10:29:55;19.03;;;10.30;;
13204;SDS011;6667;52.634;9.226;2022-12-18T10:32:23;22.87;;;11.53;;
13204;SDS011;6667;52.634;9.226;2022-12-18T10:34:53;17.20;;;11.23;;
13204;SDS011;6667;52.634;9.226;2022-12-18T10:37:21;17.13;;;10.00;;
13204;SDS011;6667;52.634;9.226;2022-12-18T10:40:06;17.40;;;10.90;;
13204;SDS011;6667;52.634;9.226;2022-12-18T10:42:36;26.97;;;11.70;;
13204;SDS011;6667;52.634;9.226;2022-12-18T10:45:08;25.63;;;11.40;;
13204;SDS011;6667;52.634;9.226;2022-12-18T10:47:36;16.50;;;10.63;;
13204;SDS011;6667;52.634;9.226;2022-12-18T10:50:10;18.70;;;10.43;;
13204;SDS011;6667;52.634;9.226;2022-12-18T10:52:52;16.53;;;9.97;;
13204;SDS011;6667;52.634;9.226;2022-12-18T10:55:21;17.47;;;11.20;;
13204;SDS011;6667;52.634;9.226;2022-12-18T10:57:49;18.07;;;10.47;;
13204;SDS011;6667;52.634;9.226;2022-12-18T11:00:21;16.37;;;9.97;;
13204;SDS011;6667;52.634;9.226;2022-12-18T11:02:53;16.43;;;10.70;;
13204;SDS011;6667;52.634;9.226;2022-12-18T11:05:24;18.80;;;9.83;;
13204;SDS011;6667;52.634;9.226;2022-12-18T11:07:53;17.10;;;9.77;;
13204;SDS011;6667;52.634;9.226;2022-12-18T11:10:20;15.10;;;9.40;;
13204;SDS011;6667;52.634;9.226;2022-12-18T11:12:50;14.93;;;9.33;;
13204;SDS011;6667;52.634;9.226;2022-12-18T11:15:19;12.33;;;8.57;;
13204;SDS011;6667;52.634;9.226;2022-12-18T11:17:47;16.13;;;8.53;;
13204;SDS011;6667;52.634;9.226;2022-12-18T11:20:23;19.50;;;8.57;;
13204;SDS011;6667;52.634;9.226;2022-12-18T11:22:57;14.47;;;9.10;;
13204;SDS011;6667;52.634;9.226;2022-12-18T11:25:25;13.27;;;7.90;;
13204;SDS011;6667;52.634;9.226;2022-12-18T11:27:54;14.03;;;8.20;;
13204;SDS011;6667;52.634;9.226;2022-12-18T11:30:24;16.63;;;8.10;;
13204;SDS011;6667;52.634;9.226;2022-12-18T11:32:52;11.10;;;7.20;;
13204;SDS011;6667;52.634;9.226;2022-12-18T11:35:32;14.77;;;8.07;;
13204;SDS011;6667;52.634;9.226;2022-12-18T11:38:07;11.40;;;7.63;;
13204;SDS011;6667;52.634;9.226;2022-12-18T11:40:43;12.10;;;7.73;;
13204;SDS011;6667;52.634;9.226;2022-12-18T11:43:15;12.47;;;6.90;;
13204;SDS011;6667;52.634;9.226;2022-12-18T11:45:47;11.13;;;6.73;;
13204;SDS011;6667;52.634;9.226;2022-12-18T11:48:19;9.07;;;6.60;;
13204;SDS011;6667;52.634;9.226;2022-12-18T11:50:50;10.00;;;6.43;;
13204;SDS011;6667;52.634;9.226;2022-12-18T11:53:18;8.43;;;5.90;;
13204;SDS011;6667;52.634;9.226;2022-12-18T11:58:36;9.37;;;5.40;;
13204;SDS011;6667;52.634;9.226;2022-12-18T12:01:16;8.93;;;6.20;;
13204;SDS011;6667;52.634;9.226;2022-12-18T12:03:57;9.60;;;5.20;;
13204;SDS011;6667;52.634;9.226;2022-12-18T12:06:39;9.07;;;5.60;;
13204;SDS011;6667;52.634;9.226;2022-12-18T12:09:15;7.50;;;5.10;;
13204;SDS011;6667;52.634;9.226;2022-12-18T12:11:50;8.20;;;5.30;;
13204;SDS011;6667;52.634;9.226;2022-12-18T12:14:32;7.90;;;4.53;;
13204;SDS011;6667;52.634;9.226;2022-12-18T12:17:08;6.80;;;4.40;;
13204;SDS011;6667;52.634;9.226;2022-12-18T12:19:45;6.30;;;4.23;;
13204;SDS011;6667;52.634;9.226;2022-12-18T12:22:22;7.87;;;4.87;;
13204;SDS011;6667;52.634;9.226;2022-12-18T12:25:01;8.43;;;4.57;;
13204;SDS011;6667;52.634;9.226;2022-12-18T12:27:42;6.13;;;4.47;;
13204;SDS011;6667;52.634;9.226;2022-12-18T12:30:20;8.33;;;4.37;;
13204;SDS011;6667;52.634;9.226;2022-12-18T12:32:52;6.63;;;4.63;;
13204;SDS011;6667;52.634;9.226;2022-12-18T12:35:32;7.50;;;4.97;;
13204;SDS011;6667;52.634;9.226;2022-12-18T12:38:10;9.57;;;4.73;;
13204;SDS011;6667;52.634;9.226;2022-12-18T12:40:41;7.97;;;4.17;;
13204;SDS011;6667;52.634;9.226;2022-12-18T12:43:16;7.90;;;5.07;;
13204;SDS011;6667;52.634;9.226;2022-12-18T12:45:51;8.33;;;4.47;;
13204;SDS011;6667;52.634;9.226;2022-12-18T12:48:24;7.00;;;4.70;;
13204;SDS011;6667;52.634;9.226;2022-12-18T12:51:00;7.83;;;4.23;;
13204;SDS011;6667;52.634;9.226;2022-12-18T12:53:31;8.10;;;5.43;;
13204;SDS011;6667;52.634;9.226;2022-12-18T12:56:01;7.27;;;4.50;;
13204;SDS011;6667;52.634;9.226;2022-12-18T12:58:31;8.57;;;4.03;;
13204;SDS011;6667;52.634;9.226;2022-12-18T13:01:10;7.00;;;3.80;;
13204;SDS011;6667;52.634;9.226;2022-12-18T13:03:45;6.43;;;4.13;;
13204;SDS011;6667;52.634;9.226;2022-12-18T13:06:19;6.40;;;4.07;;
13204;SDS011;6667;52.634;9.226;2022-12-18T13:08:55;5.20;;;3.90;;
13204;SDS011;6667;52.634;9.226;2022-12-18T13:11:31;6.37;;;4.10;;
13204;SDS011;6667;52.634;9.226;2022-12-18T13:14:23;7.07;;;4.20;;
13204;SDS011;6667;52.634;9.226;2022-12-18T13:19:43;5.73;;;4.23;;
13204;SDS011;6667;52.634;9.226;2022-12-18T13:22:20;6.90;;;4.30;;
13204;SDS011;6667;52.634;9.226;2022-12-18T13:24:48;8.27;;;4.60;;
13204;SDS011;6667;52.634;9.226;2022-12-18T13:30:43;9.03;;;4.97;;
13204;SDS011;6667;52.634;9.226;2022-12-18T13:36:25;7.17;;;4.13;;
13204;SDS011;6667;52.634;9.226;2022-12-18T13:39:10;7.83;;;5.03;;
13204;SDS011;6667;52.634;9.226;2022-12-18T13:41:47;9.47;;;5.73;;
13204;SDS011;6667;52.634;9.226;2022-12-18T13:44:22;9.03;;;5.90;;
13204;SDS011;6667;52.634;9.226;2022-12-18T13:46:57;9.83;;;5.87;;
13204;SDS011;6667;52.634;9.226;2022-12-18T13:49:27;7.67;;;5.47;;
13204;SDS011;6667;52.634;9.226;2022-12-18T13:52:01;11.27;;;6.33;;
13204;SDS011;6667;52.634;9.226;2022-12-18T13:54:30;10.30;;;6.13;;
13204;SDS011;6667;52.634;9.226;2022-12-18T13:57:01;10.80;;;5.57;;
13204;SDS011;6667;52.634;9.226;2022-12-18T13:59:33;9.80;;;5.83;;
13204;SDS011;6667;52.634;9.226;2022-12-18T14:02:09;9.80;;;5.80;;
13204;SDS011;6667;52.634;9.226;2022-12-18T14:04:44;11.37;;;6.73;;
13204;SDS011;6667;52.634;9.226;2022-12-18T14:07:12;8.10;;;5.40;;
13204;SDS011;6667;52.634;9.226;2022-12-18T14:09:42;10.03;;;5.87;;
13204;SDS011;6667;52.634;9.226;2022-12-18T14:12:14;9.73;;;5.33;;
13204;SDS011;6667;52.634;9.226;2022-12-18T14:15:00;10.00;;;5.87;;
13204;SDS011;6667;52.634;9.226;2022-12-18T14:17:28;9.53;;;6.17;;
13204;SDS011;6667;52.634;9.226;2022-12-18T14:19:58;9.57;;;6.10;;
13204;SDS011;6667;52.634;9.226;2022-12-18T14:22:25;16.23;;;7.30;;
13204;SDS011;6667;52.634;9.226;2022-12-18T14:27:42;10.10;;;6.70;;
13204;SDS011;6667;52.634;9.226;2022-12-18T14:30:26;10.97;;;6.33;;
13204;SDS011;6667;52.634;9.226;2022-12-18T14:33:01;10.53;;;6.27;;
13204;SDS011;6667;52.634;9.226;2022-12-18T14:35:31;12.47;;;6.37;;
13204;SDS011;6667;52.634;9.226;2022-12-18T14:38:18;10.13;;;6.30;;
13204;SDS011;6667;52.634;9.226;2022-12-18T14:40:47;15.17;;;7.93;;
13204;SDS011;6667;52.634;9.226;2022-12-18T14:43:17;11.63;;;6.83;;
13204;SDS011;6667;52.634;9.226;2022-12-18T14:45:45;12.43;;;7.00;;
13204;SDS011;6667;52.634;9.226;2022-12-18T14:48:14;10.50;;;5.53;;
13204;SDS011;6667;52.634;9.226;2022-12-18T14:50:44;11.00;;;6.20;;
13204;SDS011;6667;52.634;9.226;2022-12-18T14:53:21;11.67;;;5.83;;
13204;SDS011;6667;52.634;9.226;2022-12-18T14:55:54;14.43;;;7.33;;
13204;SDS011;6667;52.634;9.226;2022-12-18T14:58:21;12.37;;;7.30;;
13204;SDS011;6667;52.634;9.226;2022-12-18T15:00:48;11.40;;;7.13;;
13204;SDS011;6667;52.634;9.226;2022-12-18T15:03:16;11.00;;;6.83;;
13204;SDS011;6667;52.634;9.226;2022-12-18T15:05:47;12.27;;;7.13;;
13204;SDS011;6667;52.634;9.226;2022-12-18T15:08:24;10.40;;;5.63;;
13204;SDS011;6667;52.634;9.226;2022-12-18T15:10:55;10.50;;;6.23;;
13204;SDS011;6667;52.634;9.226;2022-12-18T15:13:23;12.77;;;7.50;;
13204;SDS011;6667;52.634;9.226;2022-12-18T15:15:51;10.37;;;6.17;;
13204;SDS011;6667;52.634;9.226;2022-12-18T15:18:19;16.37;;;7.63;;
13204;SDS011;6667;52.634;9.226;2022-12-18T15:20:49;10.73;;;5.97;;
13204;SDS011;6667;52.634;9.226;2022-12-18T15:23:18;15.10;;;8.60;;
13204;SDS011;6667;52.634;9.226;2022-12-18T15:25:47;10.77;;;6.43;;
13204;SDS011;6667;52.634;9.226;2022-12-18T15:28:21;9.77;;;6.83;;
13204;SDS011;6667;52.634;9.226;2022-12-18T15:31:00;10.40;;;6.07;;
13204;SDS011;6667;52.634;9.226;2022-12-18T15:33:30;11.37;;;6.80;;
13204;SDS011;6667;52.634;9.226;2022-12-18T15:36:00;11.03;;;6.40;;
13204;SDS011;6667;52.634;9.226;2022-12-18T15:38:28;13.73;;;6.77;;
13204;SDS011;6667;52.634;9.226;2022-12-18T15:40:55;13.07;;;6.87;;
13204;SDS011;6667;52.634;9.226;2022-12-18T15:43:23;12.97;;;6.80;;
13204;SDS011;6667;52.634;9.226;2022-12-18T15:45:59;13.33;;;7.70;;
13204;SDS011;6667;52.634;9.226;2022-12-18T15:48:26;11.97;;;7.20;;
13204;SDS011;6667;52.634;9.226;2022-12-18T15:50:54;15.87;;;10.10;;
13204;SDS011;6667;52.634;9.226;2022-12-18T15:53:24;21.17;;;8.90;;
13204;SDS011;6667;52.634;9.226;2022-12-18T15:55:53;16.77;;;8.30;;
13204;SDS011;6667;52.634;9.226;2022-12-18T15:58:37;14.67;;;7.47;;
13204;SDS011;6667;52.634;9.226;2022-12-18T16:01:04;16.50;;;8.37;;
13204;SDS011;6667;52.634;9.226;2022-12-18T16:03:31;15.73;;;8.63;;
13204;SDS011;6667;52.634;9.226;2022-12-18T16:05:58;22.53;;;12.33;;
13204;SDS011;6667;52.634;9.226;2022-12-18T16:08:28;33.70;;;14.67;;
13204;SDS011;6667;52.634;9.226;2022-12-18T16:10:55;13.53;;;7.93;;
13204;SDS011;6667;52.634;9.226;2022-12-18T16:13:22;14.60;;;8.47;;
13204;SDS011;6667;52.634;9.226;2022-12-18T16:15:49;12.73;;;7.40;;
13204;SDS011;6667;52.634;9.226;2022-12-18T16:18:16;14.87;;;7.73;;
13204;SDS011;6667;52.634;9.226;2022-12-18T16:20:42;15.20;;;8.20;;
13204;SDS011;6667;52.634;9.226;2022-12-18T16:23:09;12.60;;;7.63;;
13204;SDS011;6667;52.634;9.226;2022-12-18T16:25:37;11.47;;;7.67;;
13204;SDS011;6667;52.634;9.226;2022-12-18T16:28:04;16.30;;;8.80;;
13204;SDS011;6667;52.634;9.226;2022-12-18T16:30:31;12.57;;;7.80;;
13204;SDS011;6667;52.634;9.226;2022-12-18T16:32:58;12.70;;;7.87;;
13204;SDS011;6667;52.634;9.226;2022-12-18T16:35:25;16.00;;;9.23;;
13204;SDS011;6667;52.634;9.226;2022-12-18T16:37:52;13.77;;;7.77;;
13204;SDS011;6667;52.634;9.226;2022-12-18T16:40:19;16.40;;;8.03;;
13204;SDS011;6667;52.634;9.226;2022-12-18T16:42:48;15.53;;;7.63;;
13204;SDS011;6667;52.634;9.226;2022-12-18T16:45:15;12.00;;;7.70;;
13204;SDS011;6667;52.634;9.226;2022-12-18T16:47:43;12.93;;;7.90;;
13204;SDS011;6667;52.634;9.226;2022-12-18T16:50:10;17.13;;;10.30;;
13204;SDS011;6667;52.634;9.226;2022-12-18T16:52:37;12.53;;;7.50;;
13204;SDS011;6667;52.634;9.226;2022-12-18T16:55:04;15.23;;;7.93;;
13204;SDS011;6667;52.634;9.226;2022-12-18T16:57:32;13.80;;;8.10;;
13204;SDS011;6667;52.634;9.226;2022-12-18T17:00:00;17.63;;;8.60;;
13204;SDS011;6667;52.634;9.226;2022-12-18T17:02:27;14.17;;;8.57;;
13204;SDS011;6667;52.634;9.226;2022-12-18T17:04:54;15.50;;;8.30;;
13204;SDS011;6667;52.634;9.226;2022-12-18T17:07:22;14.23;;;8.20;;
13204;SDS011;6667;52.634;9.226;2022-12-18T17:09:49;15.10;;;8.60;;
13204;SDS011;6667;52.634;9.226;2022-12-18T17:12:17;13.63;;;7.80;;
13204;SDS011;6667;52.634;9.226;2022-12-18T17:14:44;16.57;;;9.73;;
13204;SDS011;6667;52.634;9.226;2022-12-18T17:17:12;15.03;;;9.20;;
13204;SDS011;6667;52.634;9.226;2022-12-18T17:19:39;25.70;;;16.17;;
13204;SDS011;6667;52.634;9.226;2022-12-18T17:22:06;29.67;;;18.20;;
13204;SDS011;6667;52.634;9.226;2022-12-18T17:24:33;15.80;;;9.10;;
13204;SDS011;6667;52.634;9.226;2022-12-18T17:27:00;13.80;;;7.83;;
13204;SDS011;6667;52.634;9.226;2022-12-18T17:29:27;11.13;;;7.33;;
13204;SDS011;6667;52.634;9.226;2022-12-18T17:31:53;15.43;;;10.07;;
13204;SDS011;6667;52.634;9.226;2022-12-18T17:34:21;13.03;;;7.17;;
13204;SDS011;6667;52.634;9.226;2022-12-18T17:36:48;13.73;;;7.10;;
13204;SDS011;6667;52.634;9.226;2022-12-18T17:39:16;14.60;;;7.97;;
13204;SDS011;6667;52.634;9.226;2022-12-18T17:41:44;13.13;;;7.97;;
13204;SDS011;6667;52.634;9.226;2022-12-18T17:44:11;12.47;;;7.30;;
13204;SDS011;6667;52.634;9.226;2022-12-18T17:46:38;11.80;;;7.77;;
13204;SDS011;6667;52.634;9.226;2022-12-18T17:49:05;13.93;;;8.23;;
13204;SDS011;6667;52.634;9.226;2022-12-18T17:51:33;14.63;;;7.40;;
13204;SDS011;6667;52.634;9.226;2022-12-18T17:54:00;12.50;;;7.67;;
13204;SDS011;6667;52.634;9.226;2022-12-18T17:56:27;12.07;;;7.70;;
13204;SDS011;6667;52.634;9.226;2022-12-18T17:58:54;14.23;;;7.93;;
13204;SDS011;6667;52.634;9.226;2022-12-18T18:01:21;16.03;;;10.80;;
13204;SDS011;6667;52.634;9.226;2022-12-18T18:03:49;12.30;;;7.80;;
13204;SDS011;6667;52.634;9.226;2022-12-18T18:06:16;12.13;;;7.17;;
13204;SDS011;6667;52.634;9.226;2022-12-18T18:08:44;12.67;;;7.63;;
13204;SDS011;6667;52.634;9.226;2022-12-18T18:11:12;17.23;;;9.30;;
13204;SDS011;6667;52.634;9.226;2022-12-18T18:13:57;14.50;;;7.87;;
13204;SDS011;6667;52.634;9.226;2022-12-18T18:16:29;19.77;;;10.60;;
13204;SDS011;6667;52.634;9.226;2022-12-18T18:18:57;17.17;;;10.00;;
13204;SDS011;6667;52.634;9.226;2022-12-18T18:21:25;19.03;;;9.37;;
13204;SDS011;6667;52.634;9.226;2022-12-18T18:23:53;14.07;;;9.27;;
13204;SDS011;6667;52.634;9.226;2022-12-18T18:26:20;15.00;;;8.83;;
13204;SDS011;6667;52.634;9.226;2022-12-18T18:28:46;16.80;;;8.97;;
13204;SDS011;6667;52.634;9.226;2022-12-18T18:31:14;11.20;;;7.63;;
13204;SDS011;6667;52.634;9.226;2022-12-18T18:33:40;12.87;;;8.40;;
13204;SDS011;6667;52.634;9.226;2022-12-18T18:36:08;12.43;;;7.63;;
13204;SDS011;6667;52.634;9.226;2022-12-18T18:38:36;16.27;;;8.37;;
13204;SDS011;6667;52.634;9.226;2022-12-18T18:41:05;12.53;;;8.23;;
13204;SDS011;6667;52.634;9.226;2022-12-18T18:43:32;16.27;;;9.70;;
13204;SDS011;6667;52.634;9.226;2022-12-18T18:46:00;15.33;;;9.90;;
13204;SDS011;6667;52.634;9.226;2022-12-18T18:48:30;14.53;;;7.67;;
13204;SDS011;6667;52.634;9.226;2022-12-18T18:50:59;13.80;;;8.17;;
13204;SDS011;6667;52.634;9.226;2022-12-18T18:53:26;17.97;;;11.13;;
13204;SDS011;6667;52.634;9.226;2022-12-18T18:55:56;30.37;;;17.17;;
13204;SDS011;6667;52.634;9.226;2022-12-18T18:58:24;14.07;;;9.47;;
13204;SDS011;6667;52.634;9.226;2022-12-18T19:00:54;21.20;;;10.60;;
13204;SDS011;6667;52.634;9.226;2022-12-18T19:03:21;12.30;;;7.00;;
13204;SDS011;6667;52.634;9.226;2022-12-18T19:05:50;11.13;;;8.67;;
13204;SDS011;6667;52.634;9.226;2022-12-18T19:08:19;13.77;;;9.17;;
13204;SDS011;6667;52.634;9.226;2022-12-18T19:10:45;15.10;;;8.10;;
13204;SDS011;6667;52.634;9.226;2022-12-18T19:13:12;13.80;;;7.80;;
13204;SDS011;6667;52.634;9.226;2022-12-18T19:15:51;13.10;;;7.37;;
13204;SDS011;6667;52.634;9.226;2022-12-18T19:18:19;31.73;;;16.23;;
13204;SDS011;6667;52.634;9.226;2022-12-18T19:20:53;10.60;;;6.57;;
13204;SDS011;6667;52.634;9.226;2022-12-18T19:23:20;15.97;;;8.67;;
13204;SDS011;6667;52.634;9.226;2022-12-18T19:25:47;19.07;;;10.43;;
13204;SDS011;6667;52.634;9.226;2022-12-18T19:28:14;14.90;;;9.23;;
13204;SDS011;6667;52.634;9.226;2022-12-18T19:30:40;23.07;;;12.00;;
13204;SDS011;6667;52.634;9.226;2022-12-18T19:33:09;24.57;;;15.03;;
13204;SDS011;6667;52.634;9.226;2022-12-18T19:35:35;11.10;;;7.27;;
13204;SDS011;6667;52.634;9.226;2022-12-18T19:38:02;16.37;;;9.13;;
13204;SDS011;6667;52.634;9.226;2022-12-18T19:40:29;19.57;;;12.30;;
13204;SDS011;6667;52.634;9.226;2022-12-18T19:42:56;14.63;;;9.57;;
13204;SDS011;6667;52.634;9.226;2022-12-18T19:45:22;21.13;;;9.87;;
13204;SDS011;6667;52.634;9.226;2022-12-18T19:47:49;9.93;;;6.13;;
13204;SDS011;6667;52.634;9.226;2022-12-18T19:50:17;10.27;;;6.30;;
13204;SDS011;6667;52.634;9.226;2022-12-18T19:52:44;9.87;;;6.00;;
13204;SDS011;6667;52.634;9.226;2022-12-18T19:55:10;23.70;;;12.60;;
13204;SDS011;6667;52.634;9.226;2022-12-18T19:57:37;11.97;;;6.83;;
13204;SDS011;6667;52.634;9.226;2022-12-18T20:00:04;17.40;;;8.93;;
13204;SDS011;6667;52.634;9.226;2022-12-18T20:02:31;15.70;;;6.77;;
13204;SDS011;6667;52.634;9.226;2022-12-18T20:05:00;10.90;;;5.43;;
13204;SDS011;6667;52.634;9.226;2022-12-18T20:07:29;8.63;;;5.57;;
13204;SDS011;6667;52.634;9.226;2022-12-18T20:09:56;10.10;;;5.53;;
13204;SDS011;6667;52.634;9.226;2022-12-18T20:12:23;9.13;;;5.57;;
13204;SDS011;6667;52.634;9.226;2022-12-18T20:14:49;12.33;;;6.47;;
13204;SDS011;6667;52.634;9.226;2022-12-18T20:17:17;10.17;;;6.70;;
13204;SDS011;6667;52.634;9.226;2022-12-18T20:19:44;12.83;;;7.67;;
13204;SDS011;6667;52.634;9.226;2022-12-18T20:22:11;12.30;;;5.93;;
13204;SDS011;6667;52.634;9.226;2022-12-18T20:24:39;8.07;;;5.07;;
13204;SDS011;6667;52.634;9.226;2022-12-18T20:27:05;11.77;;;7.13;;
13204;SDS011;6667;52.634;9.226;2022-12-18T20:29:32;9.93;;;6.07;;
13204;SDS011;6667;52.634;9.226;2022-12-18T20:31:59;11.07;;;6.23;;
13204;SDS011;6667;52.634;9.226;2022-12-18T20:34:26;11.23;;;5.20;;
13204;SDS011;6667;52.634;9.226;2022-12-18T20:36:52;10.60;;;6.83;;
13204;SDS011;6667;52.634;9.226;2022-12-18T20:39:19;9.80;;;5.70;;
13204;SDS011;6667;52.634;9.226;2022-12-18T20:41:47;12.00;;;6.93;;
13204;SDS011;6667;52.634;9.226;2022-12-18T20:44:15;10.17;;;5.90;;
13204;SDS011;6667;52.634;9.226;2022-12-18T20:46:42;14.07;;;7.33;;
13204;SDS011;6667;52.634;9.226;2022-12-18T20:49:09;10.13;;;6.80;;
13204;SDS011;6667;52.634;9.226;2022-12-18T20:51:36;9.17;;;6.13;;
13204;SDS011;6667;52.634;9.226;2022-12-18T20:54:03;11.07;;;6.07;;
13204;SDS011;6667;52.634;9.226;2022-12-18T20:56:29;16.23;;;6.50;;
13204;SDS011;6667;52.634;9.226;2022-12-18T20:58:59;12.17;;;6.50;;
13204;SDS011;6667;52.634;9.226;2022-12-18T21:01:27;11.83;;;5.33;;
13204;SDS011;6667;52.634;9.226;2022-12-18T21:03:54;10.23;;;6.70;;
13204;SDS011;6667;52.634;9.226;2022-12-18T21:06:22;16.10;;;6.53;;
13204;SDS011;6667;52.634;9.226;2022-12-18T21:08:49;9.97;;;7.03;;
13204;SDS011;6667;52.634;9.226;2022-12-18T21:11:24;9.00;;;5.73;;
13204;SDS011;6667;52.634;9.226;2022-12-18T21:14:12;11.67;;;6.83;;
13204;SDS011;6667;52.634;9.226;2022-12-18T21:16:40;11.03;;;6.83;;
13204;SDS011;6667;52.634;9.226;2022-12-18T21:19:09;14.90;;;6.77;;
13204;SDS011;6667;52.634;9.226;2022-12-18T21:21:37;9.80;;;6.23;;
13204;SDS011;6667;52.634;9.226;2022-12-18T21:24:04;12.03;;;6.57;;
13204;SDS011;6667;52.634;9.226;2022-12-18T21:26:31;17.90;;;7.50;;
13204;SDS011;6667;52.634;9.226;2022-12-18T21:28:59;10.57;;;5.83;;
13204;SDS011;6667;52.634;9.226;2022-12-18T21:31:29;12.00;;;6.97;;
13204;SDS011;6667;52.634;9.226;2022-12-18T21:33:57;13.07;;;6.13;;
13204;SDS011;6667;52.634;9.226;2022-12-18T21:36:24;12.70;;;7.20;;
13204;SDS011;6667;52.634;9.226;2022-12-18T21:38:51;11.93;;;7.17;;
13204;SDS011;6667;52.634;9.226;2022-12-18T21:41:18;13.27;;;7.47;;
13204;SDS011;6667;52.634;9.226;2022-12-18T21:44:03;9.53;;;6.17;;
13204;SDS011;6667;52.634;9.226;2022-12-18T21:46:33;13.80;;;7.50;;
13204;SDS011;6667;52.634;9.226;2022-12-18T21:49:01;13.87;;;7.57;;
13204;SDS011;6667;52.634;9.226;2022-12-18T21:51:30;13.87;;;7.40;;
13204;SDS011;6667;52.634;9.226;2022-12-18T21:53:57;11.90;;;6.87;;
13204;SDS011;6667;52.634;9.226;2022-12-18T21:56:24;14.50;;;7.43;;
13204;SDS011;6667;52.634;9.226;2022-12-18T21:59:07;13.30;;;6.67;;
13204;SDS011;6667;52.634;9.226;2022-12-18T22:01:35;12.63;;;7.20;;
13204;SDS011;6667;52.634;9.226;2022-12-18T22:04:01;13.97;;;7.93;;
13204;SDS011;6667;52.634;9.226;2022-12-18T22:06:28;13.90;;;7.27;;
13204;SDS011;6667;52.634;9.226;2022-12-18T22:08:55;10.10;;;7.33;;
